• Join FlightAware (Why Join?)
  • Login
  • US Flag 
02:18AM EDT


 

Airport Tracker/Info


-or-


 

Live Flight TrackerFlight Track Log ✈ SWA279 ✈ 23-Apr-2013 ✈ KRNO - KPDX

Flight Track Log - Related Links

Times and Time Zones

All times are in EDT time to prevent confusion due to time zone crossing. See the SWA279 flight status page for this flight to view local times or setup timezone preferences in your user account.

Time Position Orientation Groundspeed Altitude Reporting Facility
EDT Latitude Longitude Course Direction KTS MPH feet Rate Location/Type
09:41PM 39.4000 -119.7500 166° South 244 281 9,400  Level Northern Cal TRACON
09:43PM 39.5314 -119.6889 20° North 297 342 15,700 2,700 Climbing Oakland Center
09:44PM 39.6269 -119.7278 343° North 350 403 18,900 3,240 Climbing Oakland Center
09:45PM 39.7161 -119.7958 330° Northwest 367 422 22,300 3,000 Climbing Oakland Center
09:46PM 39.8108 -119.8536 335° Northwest 373 429 25,000 2,460 Climbing Oakland Center
09:47PM 39.9092 -119.9147 335° Northwest 388 447 27,400 2,220 Climbing Oakland Center
09:48PM 40.0092 -119.9764 335° Northwest 395 455 29,600 2,160 Climbing Oakland Center
09:49PM 40.1108 -120.0411 334° Northwest 406 467 31,900 2,220 Climbing Oakland Center
09:51PM 40.2114 -120.1033 335° Northwest 400 460 34,200 1,980 Climbing Oakland Center
09:52PM 40.3089 -120.1658 334° Northwest 392 451 36,000 840 Climbing Oakland Center
09:53PM 40.4058 -120.2261 335° Northwest 386 444 36,000  Level Oakland Center
09:54PM 40.5022 -120.2886 334° Northwest 382 440 36,000  Level Oakland Center
09:55PM 40.6003 -120.3517 334° Northwest 382 440 36,000  Level Oakland Center
09:55PM 40.6786 -120.3967 336° Northwest 377 434 36,000  Level Seattle Center
09:56PM 40.6953 -120.4119 325° Northwest 378 435 36,000  Level Oakland Center
09:57PM 40.7900 -120.4733 334° Northwest 378 435 36,000  Level Oakland Center
09:58PM 40.8850 -120.5317 335° Northwest 376 433 36,000  Level Oakland Center
09:58PM 40.9619 -120.5803 334° Northwest 377 434 36,000  Level Seattle Center
09:59PM 41.0572 -120.6419 334° Northwest 379 436 36,000 60 Level Seattle Center
10:00PM 41.1519 -120.7039 334° Northwest 378 435 36,200 1,140 Climbing Seattle Center
10:01PM 41.2467 -120.7642 334° Northwest 379 436 38,400 1,620 Climbing Seattle Center
10:02PM 41.3350 -120.8231 333° Northwest 362 417 39,500 780 Climbing Seattle Center
10:03PM 41.4264 -120.8844 333° Northwest 365 420 40,000 240 Climbing Seattle Center
10:04PM 41.5217 -120.9458 334° Northwest 375 432 40,000  Level Seattle Center
10:05PM 41.6144 -121.0064 334° Northwest 375 432 40,000  Level Seattle Center
10:06PM 41.7069 -121.0675 334° Northwest 372 428 40,000  Level Seattle Center
10:07PM 41.8167 -121.1408 334° Northwest 370 426 40,000  Level Seattle Center
10:08PM 41.9078 -121.2019 333° Northwest 368 423 40,000  Level Seattle Center
10:09PM 41.9975 -121.2617 334° Northwest 361 415 40,000  Level Seattle Center
10:10PM 42.0892 -121.3217 334° Northwest 366 421 40,000  Level Seattle Center
10:11PM 42.1808 -121.3847 333° Northwest 371 427 40,000  Level Seattle Center
10:13PM 42.2742 -121.4458 334° Northwest 375 432 40,000  Level Seattle Center
10:14PM 42.3633 -121.5056 334° Northwest 365 420 40,000  Level Seattle Center
10:15PM 42.4536 -121.5667 333° Northwest 366 421 40,000  Level Seattle Center
10:16PM 42.5439 -121.6286 333° Northwest 366 421 40,000  Level Seattle Center
10:17PM 42.6344 -121.6900 333° Northwest 367 422 40,000  Level Seattle Center
10:18PM 42.7256 -121.7522 333° Northwest 367 422 40,000  Level Seattle Center
10:19PM 42.8153 -121.8128 334° Northwest 363 418 40,000  Level Seattle Center
10:20PM 42.9231 -121.8864 333° Northwest 362 417 40,000  Level Seattle Center
10:21PM 43.0125 -121.9483 333° Northwest 360 414 40,000  Level Seattle Center
10:22PM 43.1022 -122.0114 333° Northwest 363 418 40,000  Level Seattle Center
10:23PM 43.1933 -122.0750 333° Northwest 367 422 40,000  Level Seattle Center
10:24PM 43.2853 -122.1386 333° Northwest 371 427 40,000  Level Seattle Center
10:25PM 43.3886 -122.2058 335° Northwest 370 426 40,000  Level Seattle Center
10:26PM 43.4797 -122.2711 333° Northwest 369 425 40,000  Level Seattle Center
10:27PM 43.5717 -122.3367 333° Northwest 371 427 40,000 -240 Level Seattle Center
10:28PM 43.6614 -122.4014 332° Northwest 366 421 39,600 -720 Descending Seattle Center
10:29PM 43.7511 -122.4672 332° Northwest 363 418 38,600 -1,320 Descending Seattle Center
10:30PM 43.8383 -122.5289 333° Northwest 357 411 37,000 -840 Descending Seattle Center
10:31PM 43.9233 -122.5892 333° Northwest 346 398 37,000 -120 Level Seattle Center
10:32PM 44.0089 -122.6500 333° Northwest 348 400 36,800 -1,620 Descending Seattle Center
10:33PM 44.0939 -122.7122 332° Northwest 348 400 33,800 -2,760 Descending Seattle Center
10:34PM 44.1858 -122.7483 344° North 353 406 31,200 -2,460 Descending Seattle Center
10:35PM 44.2825 -122.7392 North 351 404 28,900 -3,420 Descending Seattle Center
10:36PM 44.3864 -122.7297 North 345 397 24,300 -3,540 Descending Seattle Center
10:37PM 44.4886 -122.7192 North 365 420 21,800 -1,800 Descending Seattle Center
10:38PM 44.5794 -122.7100 North 337 388 20,700 -1,440 Descending Seattle Center
10:39PM 44.6686 -122.7031 North 318 366 19,100 -1,920 Descending Seattle Center
10:39PM 44.7003 -122.6994 North 311 358 18,300 -1,680 Descending Seattle Center
10:40PM 44.7533 -122.6933 North 314 361 17,200 -1,980 Descending Seattle Center
10:40PM 44.7856 -122.6925 North 297 342 16,300 -2,100 Descending Seattle Center
10:41PM 44.8342 -122.6856 North 300 345 15,100 -1,980 Descending Seattle Center
10:41PM 44.8656 -122.6817 North 295 339 14,300 -2,400 Descending Seattle Center
10:42PM 44.9303 -122.6750 North 292 336 12,700 -1,380 Descending Seattle Center
10:43PM 45.0075 -122.6678 North 284 327 11,900 -600 Descending Seattle Center
10:43PM 45.0317 -122.6667 North 285 328 12,000 -720 Climbing Seattle Center
10:44PM 45.0892 -122.6592 North 291 335 11,200 -1,380 Descending Seattle Center
10:45PM 45.1700 -122.6503 North 293 337 9,600 -1,200 Descending Seattle Center
10:46PM 45.2425 -122.6453 North 271 312 8,800 -1,140 Descending Seattle Center
10:47PM 45.3206 -122.6386 North 235 270 7,200 -1,200 Descending Seattle Center
10:48PM 45.3731 -122.6294 North 239 275 6,400 -720 Descending Seattle Center
10:49PM 45.4392 -122.6236 North 239 275 5,900 -840 Descending Seattle Center
10:50PM 45.4517 -122.5475 77° East 233 268 4,800 -1,200 Descending Seattle Center
10:51PM 45.4353 -122.4603 105° East 238 274 3,600 -1,200 Descending Seattle Center
10:52PM 45.4881 -122.4247 25° Northeast 221 254 2,500 -840 Descending Seattle Center
10:53PM 45.5358 -122.4367 350° North 210 242 2,000 -600 Descending Seattle Center
10:54PM 45.5506 -122.4842 294° West 157 181 1,300 -720 Descending Seattle Center
10:55PM 45.5744 -122.5442 300° West 122 140 400 -780 Descending Seattle Center